Time;durP1;ratioP1;P1;durP2;ratioP2;P2;SDS_P1;SDS_P2;PMS_P1;PMS_P2;Temp;Humidity;BMP_temperature;BMP_pressure;BME280_temperature;BME280_humidity;BME280_pressure;Samples;Min_cycle;Max_cycle;Signal;HPM_P1;HPM_P2
2022/08/13 00:00:41;;;;;;;0.57;0.40;;;;;;;21.81;100.00;95095.53;5072788;28;20997;-56
2022/08/13 00:03:14;;;;;;;0.60;0.40;;;;;;;21.92;100.00;95091.25;5073042;28;20424;-56
2022/08/13 00:06:08;;;;;;;0.40;0.30;;;;;;;21.79;100.00;95100.50;5072680;28;20448;-56
2022/08/13 00:08:53;;;;;;;0.40;0.30;;;;;;;21.65;100.00;95094.75;5072508;28;20505;-56
2022/08/13 00:14:29;;;;;;;0.53;0.40;;;;;;;21.75;100.00;95083.47;5047865;28;21018;-56
2022/08/13 00:17:06;;;;;;;0.50;0.40;;;;;;;21.55;100.00;95081.75;5072780;28;20436;-56
2022/08/13 00:19:38;;;;;;;0.50;0.30;;;;;;;21.57;100.00;95082.19;5072412;28;20492;-56
2022/08/13 00:22:08;;;;;;;0.40;0.30;;;;;;;20.88;100.00;94978.19;5072678;28;20808;-56
2022/08/13 00:24:58;;;;;;;0.50;0.30;;;;;;;21.63;100.00;95072.75;5072429;28;20430;-56
2022/08/13 00:27:29;;;;;;;0.90;0.60;;;;;;;21.60;100.00;95071.50;5071687;28;20426;-56
2022/08/13 00:30:18;;;;;;;0.40;0.40;;;;;;;21.70;100.00;95064.81;5072150;28;20448;-56
2022/08/13 00:32:54;;;;;;;1.37;0.40;;;;;;;21.64;100.00;95058.09;5072529;28;20878;-56
2022/08/13 00:35:24;;;;;;;0.60;0.57;;;;;;;21.62;100.00;95061.16;5072124;28;20487;-56
2022/08/13 00:38:10;;;;;;;0.50;0.40;;;;;;;21.23;100.00;95070.84;5072068;28;21018;-56
2022/08/13 00:40:42;;;;;;;0.70;0.70;;;;;;;21.44;100.00;95067.97;5072377;28;20433;-56
2022/08/13 00:43:26;;;;;;;0.60;0.30;;;;;;;21.31;100.00;95071.84;5072115;28;20425;-56
2022/08/13 00:46:00;;;;;;;0.50;0.40;;;;;;;21.45;100.00;95070.31;5070859;28;20424;-56
2022/08/13 00:51:23;;;;;;;0.60;0.53;;;;;;;21.52;100.00;95057.06;5071884;28;20448;-56
2022/08/13 00:54:15;;;;;;;0.53;0.47;;;;;;;21.54;100.00;95067.47;5072206;28;20425;-56
2022/08/13 00:56:45;;;;;;;1.70;0.70;;;;;;;21.42;100.00;95057.53;5071924;28;20420;-56
2022/08/13 00:59:15;;;;;;;0.40;0.30;;;;;;;21.27;100.00;95055.59;5071743;28;20465;-56
2022/08/13 01:01:46;;;;;;;0.43;0.30;;;;;;;21.36;100.00;95056.22;5072183;28;20634;-56
2022/08/13 01:04:20;;;;;;;0.50;0.33;;;;;;;20.91;100.00;95058.34;5071883;28;20431;-56
2022/08/13 01:06:55;;;;;;;0.43;0.33;;;;;;;20.77;100.00;95060.63;5071506;28;20425;-56
2022/08/13 01:09:29;;;;;;;0.50;0.40;;;;;;;20.97;100.00;95046.22;5071521;28;20417;-56
2022/08/13 01:12:21;;;;;;;0.40;0.30;;;;;;;21.12;100.00;95052.81;5071100;28;20437;-56
2022/08/13 01:14:56;;;;;;;0.47;0.27;;;;;;;21.22;100.00;95049.66;5071978;28;20436;-56
2022/08/13 01:17:27;;;;;;;0.43;0.33;;;;;;;21.18;100.00;95057.63;5071953;28;20494;-57
2022/08/13 01:20:21;;;;;;;0.50;0.30;;;;;;;21.34;100.00;95047.69;5071845;28;20514;-55
2022/08/13 01:23:07;;;;;;;0.70;0.40;;;;;;;21.19;100.00;95048.41;5071569;28;20925;-55
2022/08/13 01:25:37;;;;;;;0.40;0.20;;;;;;;21.19;100.00;95045.72;5072103;28;20425;-56
2022/08/13 01:28:22;;;;;;;0.50;0.47;;;;;;;20.84;100.00;95053.53;5071609;28;20471;-56
2022/08/13 01:30:52;;;;;;;0.40;0.40;;;;;;;19.71;100.00;94965.75;5071784;28;20428;-55
2022/08/13 01:33:22;;;;;;;0.77;0.30;;;;;;;20.53;100.00;95050.66;5071558;28;20414;-55
2022/08/13 01:35:53;;;;;;;0.60;0.40;;;;;;;20.73;100.00;95054.34;5071756;28;20451;-55
2022/08/13 01:38:27;;;;;;;0.80;0.80;;;;;;;20.63;100.00;95047.50;5071665;28;20494;-55
2022/08/13 01:40:56;;;;;;;0.60;0.50;;;;;;;19.91;100.00;95048.25;5071535;28;20933;-55
2022/08/13 01:43:30;;;;;;;0.63;0.63;;;;;;;20.22;100.00;95050.41;5071909;28;20429;-55
2022/08/13 01:46:00;;;;;;;0.50;0.40;;;;;;;20.71;100.00;95049.31;5071751;28;20429;-55
2022/08/13 01:51:32;;;;;;;0.57;0.30;;;;;;;20.43;100.00;95059.19;5071048;28;20425;-55
2022/08/13 01:54:17;;;;;;;0.40;0.30;;;;;;;20.70;100.00;95049.63;5071686;28;20551;-55
2022/08/13 01:57:08;;;;;;;0.50;0.40;;;;;;;20.80;100.00;95057.22;5071839;28;20443;-56
2022/08/13 01:59:38;;;;;;;0.70;0.40;;;;;;;20.24;100.00;95059.75;5074869;28;20504;-56
2022/08/13 02:02:27;;;;;;;0.50;0.40;;;;;;;20.41;100.00;95064.13;5074760;28;20437;-55
2022/08/13 02:05:11;;;;;;;0.90;0.90;;;;;;;20.59;100.00;95064.69;5074734;28;20421;-56
2022/08/13 02:08:00;;;;;;;0.40;0.20;;;;;;;20.85;100.00;95057.78;5074623;28;20443;-56
2022/08/13 02:10:38;;;;;;;0.60;0.40;;;;;;;20.69;100.00;95064.22;5074976;28;20425;-56
2022/08/13 02:13:11;;;;;;;0.67;0.53;;;;;;;20.52;100.00;95062.53;5074845;28;20500;-56
2022/08/13 02:15:45;;;;;;;0.40;0.30;;;;;;;20.63;100.00;95057.50;5074819;28;20467;-56
2022/08/13 02:18:21;;;;;;;0.50;0.40;;;;;;;20.32;100.00;95054.59;5074223;28;20547;-56
2022/08/13 02:20:53;;;;;;;0.60;0.40;;;;;;;20.63;100.00;95060.19;5074778;28;20421;-56
2022/08/13 02:23:27;;;;;;;0.50;0.40;;;;;;;20.78;100.00;95062.19;5074430;28;20444;-55
2022/08/13 02:26:19;;;;;;;0.50;0.30;;;;;;;20.84;100.00;95047.38;5074260;28;20948;-56
2022/08/13 02:28:59;;;;;;;0.50;0.30;;;;;;;20.82;100.00;95050.38;5074231;28;20500;-56
2022/08/13 02:31:28;;;;;;;4.33;0.30;;;;;;;20.77;100.00;95029.06;5073721;28;20413;-55
2022/08/13 02:34:18;;;;;;;0.50;0.40;;;;;;;21.04;100.00;95062.59;5073553;28;20429;-56
2022/08/13 02:36:48;;;;;;;0.90;0.37;;;;;;;21.11;100.00;95062.03;5074075;28;20976;-56
2022/08/13 02:39:37;;;;;;;0.67;0.60;;;;;;;21.13;100.00;95057.84;5073979;28;20571;-56
2022/08/13 02:42:12;;;;;;;0.40;0.30;;;;;;;21.04;100.00;95056.41;5074162;28;20425;-56
2022/08/13 02:44:47;;;;;;;0.40;0.20;;;;;;;20.76;100.00;95059.84;5073453;28;20434;-56
2022/08/13 02:47:21;;;;;;;0.50;0.40;;;;;;;20.89;100.00;95058.69;5074391;28;20508;-56
2022/08/13 02:50:09;;;;;;;0.40;0.20;;;;;;;20.98;100.00;95055.84;5074190;28;20421;-56
2022/08/13 02:52:39;;;;;;;2.23;0.77;;;;;;;20.59;100.00;95060.06;5073966;28;20471;-56
2022/08/13 02:55:28;;;;;;;0.67;0.60;;;;;;;20.76;100.00;95065.22;5073700;28;20510;-56
2022/08/13 02:58:04;;;;;;;0.60;0.47;;;;;;;20.83;100.00;95064.63;5074162;28;20436;-56
2022/08/13 03:00:33;;;;;;;0.83;0.70;;;;;;;20.82;100.00;95063.09;5073996;28;20556;-56
2022/08/13 03:03:02;;;;;;;0.53;0.30;;;;;;;20.85;100.00;95063.19;5073676;28;20443;-56
2022/08/13 03:05:38;;;;;;;0.43;0.27;;;;;;;20.94;100.00;95071.16;5073903;28;20420;-56
2022/08/13 03:08:28;;;;;;;0.60;0.50;;;;;;;20.85;100.00;95057.78;5073184;28;20944;-56
2022/08/13 03:11:10;;;;;;;0.40;0.30;;;;;;;20.90;100.00;95065.63;5073387;28;20448;-60
2022/08/13 03:13:47;;;;;;;0.50;0.33;;;;;;;21.02;100.00;95066.75;5073488;28;20429;-61
2022/08/13 03:16:22;;;;;;;0.40;0.30;;;;;;;21.18;100.00;95063.00;5073394;28;20421;-61
2022/08/13 03:18:53;;;;;;;0.50;0.30;;;;;;;21.32;100.00;95066.13;5073363;28;20928;-62
2022/08/13 03:21:23;;;;;;;0.50;0.30;;;;;;;21.40;100.00;95070.56;5072772;28;20422;-62
2022/08/13 03:24:12;;;;;;;0.50;0.30;;;;;;;21.55;100.00;95070.97;5073280;28;20441;-62
2022/08/13 03:26:51;;;;;;;0.40;0.20;;;;;;;21.69;100.00;95076.72;5072980;28;20484;-62
2022/08/13 03:29:24;;;;;;;0.50;0.40;;;;;;;21.76;100.00;95077.72;5073297;28;20967;-62
2022/08/13 03:32:13;;;;;;;0.57;0.50;;;;;;;21.93;100.00;95068.56;5073081;28;20429;-62
2022/08/13 03:34:42;;;;;;;0.40;0.30;;;;;;;22.10;100.00;95081.72;5072969;28;20777;-62
2022/08/13 03:37:11;;;;;;;0.50;0.30;;;;;;;22.04;100.00;95077.69;5073044;28;20424;-62
2022/08/13 03:39:41;;;;;;;0.47;0.37;;;;;;;22.10;100.00;95084.41;5072597;28;20464;-62
2022/08/13 03:42:11;;;;;;;0.67;0.57;;;;;;;21.76;100.00;95028.34;5072912;28;20421;-62
2022/08/13 03:44:48;;;;;;;0.50;0.50;;;;;;;22.05;100.00;95081.97;5072618;28;20456;-62
2022/08/13 03:47:17;;;;;;;1.67;1.57;;;;;;;21.74;100.00;95073.78;5072119;28;20433;-62
2022/08/13 03:49:59;;;;;;;1.47;0.60;;;;;;;21.38;100.00;95080.91;5072613;28;20409;-61
2022/08/13 03:52:30;;;;;;;0.50;0.50;;;;;;;21.75;100.00;95083.47;5072711;28;20516;-61
2022/08/13 03:55:01;;;;;;;0.80;0.60;;;;;;;21.99;100.00;95080.66;5072625;28;20425;-61
2022/08/13 03:57:30;;;;;;;0.50;0.33;;;;;;;22.08;100.00;95078.56;5072576;28;20414;-61
2022/08/13 04:00:21;;;;;;;0.40;0.30;;;;;;;21.67;100.00;95073.59;5072179;28;20473;-62
2022/08/13 04:02:53;;;;;;;0.83;0.83;;;;;;;21.87;100.00;95073.41;5072583;28;20478;-62
2022/08/13 04:05:22;;;;;;;1.17;0.40;;;;;;;21.91;100.00;95070.78;5072861;28;20500;-62
2022/08/13 04:08:11;;;;;;;0.60;0.60;;;;;;;21.88;100.00;95069.56;5072443;28;20980;-62
2022/08/13 04:10:42;;;;;;;1.07;0.57;;;;;;;21.26;100.00;95021.66;5071514;28;20483;-62
2022/08/13 04:13:21;;;;;;;0.67;0.67;;;;;;;21.78;100.00;95069.28;5072659;28;20454;-62
2022/08/13 04:16:14;;;;;;;0.50;0.37;;;;;;;21.82;100.00;95045.88;5072144;28;20957;-61
2022/08/13 04:18:44;;;;;;;0.80;0.40;;;;;;;21.43;100.00;94974.72;5072194;28;20511;-61
2022/08/13 04:21:15;;;;;;;0.60;0.60;;;;;;;22.13;100.00;95068.31;5070678;28;20467;-61
2022/08/13 04:23:52;;;;;;;0.50;0.40;;;;;;;22.21;100.00;95061.19;5071782;28;20429;-60
2022/08/13 04:26:26;;;;;;;1.83;0.60;;;;;;;21.55;100.00;94992.75;5072384;28;20431;-61
2022/08/13 04:29:04;;;;;;;0.60;0.60;;;;;;;21.84;100.00;95076.78;5071943;28;20417;-61
2022/08/13 04:31:37;;;;;;;0.50;0.40;;;;;;;21.65;100.00;95071.25;5072342;28;20868;-61
2022/08/13 04:34:20;;;;;;;0.80;0.80;;;;;;;21.00;100.00;95069.75;5071357;28;20945;-61
2022/08/13 04:37:08;;;;;;;1.07;1.03;;;;;;;20.42;100.00;95081.06;5071946;28;20456;-60
2022/08/13 04:39:53;;;;;;;0.70;0.60;;;;;;;20.31;100.00;95021.53;5071190;28;20433;-61
2022/08/13 04:42:50;;;;;;;0.47;0.40;;;;;;;20.98;100.00;95074.72;5071661;28;20423;-56
2022/08/13 04:45:19;;;;;;;3.10;0.87;;;;;;;21.60;100.00;95079.59;5071806;28;20482;-58
2022/08/13 04:47:53;;;;;;;0.40;0.30;;;;;;;21.51;100.00;95074.34;5072021;28;20453;-56
2022/08/13 04:50:24;;;;;;;0.40;0.40;;;;;;;21.65;100.00;95062.38;5071450;28;20420;-56
2022/08/13 04:52:55;;;;;;;0.67;0.40;;;;;;;22.08;100.00;95067.78;5071725;28;20958;-56
2022/08/13 04:55:24;;;;;;;0.70;0.70;;;;;;;22.19;100.00;95062.66;5071606;28;20426;-56
2022/08/13 04:57:55;;;;;;;0.47;0.40;;;;;;;22.20;100.00;95062.28;5071658;28;20425;-56
2022/08/13 05:00:32;;;;;;;2.93;0.80;;;;;;;22.23;100.00;95067.00;5071837;28;20887;-56
2022/08/13 05:03:13;;;;;;;0.60;0.50;;;;;;;22.36;100.00;95071.19;5071568;28;20425;-56
2022/08/13 05:05:46;;;;;;;0.83;0.50;;;;;;;22.02;100.00;95071.84;5071479;28;20827;-55
2022/08/13 05:08:17;;;;;;;0.60;0.60;;;;;;;21.64;100.00;95066.19;5071363;28;20445;-55
2022/08/13 05:10:51;;;;;;;0.80;0.70;;;;;;;21.61;100.00;95062.28;5071547;28;20482;-55
2022/08/13 05:13:27;;;;;;;0.87;0.87;;;;;;;21.51;100.00;95063.56;5071423;28;20420;-55
2022/08/13 05:15:57;;;;;;;0.50;0.40;;;;;;;21.54;100.00;95056.69;5071609;28;20452;-55
2022/08/13 05:18:32;;;;;;;0.40;0.30;;;;;;;21.99;100.00;95067.94;5071300;28;20476;-54
2022/08/13 05:21:03;;;;;;;0.77;0.77;;;;;;;21.36;100.00;95063.50;5071513;28;20468;-54
2022/08/13 05:23:35;;;;;;;0.90;0.90;;;;;;;20.97;100.00;95067.78;5071393;28;20460;-55
2022/08/13 05:26:25;;;;;;;0.83;0.83;;;;;;;20.96;100.00;95036.56;5071405;28;20447;-55
2022/08/13 05:29:05;;;;;;;0.70;0.70;;;;;;;21.00;100.00;95063.63;5071390;28;20426;-54
2022/08/13 05:31:35;;;;;;;0.70;0.53;;;;;;;20.62;100.00;94956.28;5073148;28;20409;-54
2022/08/13 05:34:26;;;;;;;0.60;0.60;;;;;;;21.09;100.00;95058.91;5075312;28;20457;-53
2022/08/13 05:36:55;;;;;;;0.57;0.57;;;;;;;21.27;100.00;95054.78;5075698;28;20424;-53
2022/08/13 05:39:45;;;;;;;0.60;0.40;;;;;;;21.85;100.00;95064.88;5075107;28;20445;-55
2022/08/13 05:42:19;;;;;;;9.03;0.47;;;;;;;21.82;100.00;95035.06;5075432;28;20465;-55
2022/08/13 05:44:56;;;;;;;0.80;0.70;;;;;;;22.08;100.00;95057.78;5075489;28;20421;-57
2022/08/13 05:47:27;;;;;;;0.50;0.50;;;;;;;22.43;100.00;95060.53;5075214;28;20426;-54
2022/08/13 05:50:08;;;;;;;0.50;0.50;;;;;;;22.15;100.00;95038.25;5075472;28;20443;-55
2022/08/13 05:52:39;;;;;;;1.17;1.17;;;;;;;22.24;100.00;95063.16;5075517;28;20474;-54
2022/08/13 05:55:17;;;;;;;3.70;0.40;;;;;;;22.12;100.00;95060.53;5075493;28;20864;-54
2022/08/13 05:58:06;;;;;;;0.60;0.60;;;;;;;22.10;100.00;95043.91;5074923;28;20441;-54
2022/08/13 06:03:43;;;;;;;0.40;0.30;;;;;;;22.18;100.00;95058.38;5074951;28;20846;-53
2022/08/13 06:06:33;;;;;;;0.73;0.50;;;;;;;22.06;100.00;95062.72;5074921;28;20436;-53
2022/08/13 06:09:04;;;;;;;0.70;0.60;;;;;;;21.84;100.00;95059.78;5074371;28;20425;-53
2022/08/13 06:11:40;;;;;;;1.43;1.30;;;;;;;21.76;100.00;95047.25;5074787;28;20431;-53
2022/08/13 06:14:34;;;;;;;0.50;0.30;;;;;;;22.55;100.00;95052.34;5074469;28;20437;-54
2022/08/13 06:17:07;;;;;;;1.10;1.10;;;;;;;22.36;100.00;95057.69;5074848;28;20451;-53
2022/08/13 06:19:43;;;;;;;1.60;1.03;;;;;;;22.26;100.00;95060.91;5074173;28;20587;-53
2022/08/13 06:22:20;;;;;;;1.60;0.60;;;;;;;22.59;100.00;95063.22;5074322;28;20553;-53
2022/08/13 06:24:51;;;;;;;0.70;0.60;;;;;;;22.41;100.00;95060.13;5074452;28;20482;-53
2022/08/13 06:27:27;;;;;;;0.50;0.30;;;;;;;22.91;100.00;95051.25;5074303;28;20457;-53
2022/08/13 06:30:18;;;;;;;1.37;1.27;;;;;;;22.53;100.00;95064.63;5073493;28;20443;-53
2022/08/13 06:33:01;;;;;;;0.87;0.87;;;;;;;22.65;100.00;95057.22;5074159;28;20500;-53
2022/08/13 06:35:51;;;;;;;0.80;0.80;;;;;;;22.21;100.00;95052.28;5074040;28;20445;-53
2022/08/13 06:38:28;;;;;;;0.93;0.80;;;;;;;22.89;100.00;95050.81;5074073;28;20479;-53
2022/08/13 06:41:00;;;;;;;0.50;0.40;;;;;;;22.54;100.00;95004.06;5073859;28;20511;-53
2022/08/13 06:43:30;;;;;;;0.70;0.67;;;;;;;23.09;100.00;95048.91;5073354;28;20420;-53
2022/08/13 06:46:24;;;;;;;0.63;0.60;;;;;;;23.23;100.00;95051.91;5073787;28;20428;-53
2022/08/13 06:48:55;;;;;;;0.53;0.53;;;;;;;23.06;100.00;95044.22;5073728;28;20429;-53
2022/08/13 06:51:24;;;;;;;3.13;0.50;;;;;;;23.27;100.00;95044.66;5073107;28;20417;-53
2022/08/13 06:53:55;;;;;;;0.50;0.50;;;;;;;23.62;100.00;95026.44;5074262;28;20441;-53
2022/08/13 06:56:44;;;;;;;0.73;0.73;;;;;;;23.48;100.00;95004.50;5073742;28;20445;-53
2022/08/13 06:59:33;;;;;;;1.23;1.13;;;;;;;23.02;100.00;94986.59;5073715;28;20921;-56
2022/08/13 07:02:25;;;;;;;0.90;0.70;;;;;;;23.33;100.00;95030.47;5073486;28;20492;-56
2022/08/13 07:04:58;;;;;;;0.40;0.30;;;;;;;23.26;100.00;95030.34;5073989;28;20425;-56
2022/08/13 07:07:27;;;;;;;1.20;1.10;;;;;;;23.46;100.00;95019.53;5073762;28;20951;-56
2022/08/13 07:10:01;;;;;;;1.07;0.40;;;;;;;23.96;100.00;95027.41;5073696;28;20460;-55
2022/08/13 07:12:33;;;;;;;0.60;0.40;;;;;;;24.15;100.00;95023.91;5073280;28;20441;-56
2022/08/13 07:15:02;;;;;;;0.50;0.50;;;;;;;24.27;100.00;95026.41;5073699;28;20421;-55
2022/08/13 07:17:36;;;;;;;4.53;1.60;;;;;;;23.26;100.00;94907.88;5073235;28;20545;-56
2022/08/13 07:20:12;;;;;;;0.50;0.50;;;;;;;23.74;100.00;94979.47;5073425;28;20527;-56
2022/08/13 07:22:53;;;;;;;0.43;0.30;;;;;;;24.48;100.00;95026.75;5073250;28;20464;-55
2022/08/13 07:25:44;;;;;;;0.67;0.60;;;;;;;24.93;100.00;95036.72;5073143;28;20954;-56
2022/08/13 07:28:27;;;;;;;0.70;0.50;;;;;;;24.91;100.00;95028.19;5073544;28;20428;-55
2022/08/13 07:31:16;;;;;;;0.50;0.40;;;;;;;24.68;100.00;95028.22;5073172;28;20437;-56
2022/08/13 07:33:51;;;;;;;0.83;0.63;;;;;;;23.92;100.00;94977.84;5073153;28;20925;-56
2022/08/13 07:36:29;;;;;;;0.87;0.70;;;;;;;24.59;100.00;95020.34;5072981;28;20425;-56
2022/08/13 07:39:00;;;;;;;1.13;0.60;;;;;;;24.60;100.00;95018.41;5073216;28;20417;-56
2022/08/13 07:41:41;;;;;;;1.00;0.97;;;;;;;24.97;100.00;95007.75;5073037;28;20461;-56
2022/08/13 07:44:29;;;;;;;0.90;0.90;;;;;;;25.16;100.00;95011.09;5072827;28;20440;-56
2022/08/13 07:47:12;;;;;;;1.23;1.13;;;;;;;25.07;100.00;95010.56;5073410;28;20541;-56
2022/08/13 07:49:54;;;;;;;0.50;0.40;;;;;;;25.33;100.00;95008.94;5073029;28;20429;-57
2022/08/13 07:52:28;;;;;;;1.23;0.70;;;;;;;25.67;100.00;95010.53;5072905;28;20413;-56
2022/08/13 07:55:01;;;;;;;0.80;0.80;;;;;;;25.88;100.00;95004.53;5071975;28;20869;-57
2022/08/13 07:57:32;;;;;;;0.40;0.30;;;;;;;26.03;98.35;95006.22;5073449;28;20429;-57
2022/08/13 08:00:21;;;;;;;1.90;0.97;;;;;;;25.37;99.75;94952.81;5072846;28;20420;-57
2022/08/13 08:02:56;;;;;;;0.70;0.70;;;;;;;26.01;98.41;94987.56;5072951;28;20900;-57
2022/08/13 08:05:25;;;;;;;0.40;0.40;;;;;;;26.61;95.67;94996.22;5072643;28;20417;-58
2022/08/13 08:08:08;;;;;;;2.20;0.57;;;;;;;26.60;97.08;94996.59;5073184;28;20425;-57
2022/08/13 08:10:40;;;;;;;1.17;1.07;;;;;;;26.65;93.62;94998.94;5073175;28;20413;-57
2022/08/13 08:13:13;;;;;;;1.57;1.47;;;;;;;26.85;96.31;94997.53;5072580;28;20425;-58
2022/08/13 08:15:45;;;;;;;0.40;0.30;;;;;;;26.95;92.60;94959.53;5072391;28;20408;-57
2022/08/13 08:18:31;;;;;;;0.60;0.60;;;;;;;27.49;82.26;94979.59;5072521;28;20489;-58
2022/08/13 08:21:23;;;;;;;0.60;0.60;;;;;;;27.65;82.44;94971.84;5072199;28;20437;-58
2022/08/13 08:24:13;;;;;;;0.50;0.40;;;;;;;27.62;82.77;94969.91;5072145;28;20447;-57
2022/08/13 08:26:58;;;;;;;0.80;0.60;;;;;;;28.07;79.62;94966.47;5072420;28;20444;-57
2022/08/13 08:29:31;;;;;;;1.03;0.60;;;;;;;27.85;84.53;94948.53;5072284;28;20417;-58
2022/08/13 08:32:08;;;;;;;0.40;0.30;;;;;;;28.91;78.00;94959.38;5072224;28;20929;-58
2022/08/13 08:34:39;;;;;;;0.60;0.50;;;;;;;28.89;74.99;94962.47;5072114;28;20429;-59
2022/08/13 08:37:10;;;;;;;1.00;0.90;;;;;;;28.26;70.59;94957.91;5072485;28;20425;-59
2022/08/13 08:42:38;;;;;;;0.50;0.43;;;;;;;28.68;70.92;94953.59;5072051;28;20467;-59
2022/08/13 08:45:27;;;;;;;0.77;0.77;;;;;;;28.29;69.72;94938.03;5071970;28;20472;-59
2022/08/13 08:48:19;;;;;;;1.87;1.13;;;;;;;29.06;76.15;94949.19;5071673;28;20911;-58
2022/08/13 08:51:00;;;;;;;0.63;0.50;;;;;;;29.06;66.74;94941.00;5071816;28;20425;-58
2022/08/13 08:53:47;;;;;;;0.60;0.60;;;;;;;29.16;77.45;94943.69;5071905;28;20953;-58
2022/08/13 08:56:36;;;;;;;0.80;0.80;;;;;;;29.27;65.92;94927.28;5071813;28;20438;-58
2022/08/13 08:59:23;;;;;;;0.77;0.77;;;;;;;30.02;62.42;94931.13;5071855;28;20448;-58
2022/08/13 09:01:55;;;;;;;0.70;0.70;;;;;;;30.11;57.50;94926.75;5071679;28;20512;-58
2022/08/13 09:04:29;;;;;;;0.80;0.80;;;;;;;29.82;58.00;94914.50;5071817;28;20429;-57
2022/08/13 09:07:18;;;;;;;0.60;0.50;;;;;;;30.05;58.37;94925.63;5071528;28;20437;-57
2022/08/13 09:09:51;;;;;;;0.80;0.70;;;;;;;30.27;56.51;94909.03;5071486;28;20447;-57
2022/08/13 09:12:25;;;;;;;0.60;0.60;;;;;;;30.12;54.16;94911.13;5071725;28;20423;-58
2022/08/13 09:14:57;;;;;;;0.90;0.90;;;;;;;29.95;56.52;94912.06;5071497;28;20464;-58
2022/08/13 09:17:29;;;;;;;0.60;0.60;;;;;;;29.40;60.04;94899.13;5071426;28;20422;-58
2022/08/13 09:20:04;;;;;;;1.00;0.90;;;;;;;29.66;57.63;94899.72;5070850;28;20956;-58
2022/08/13 09:22:33;;;;;;;0.50;0.50;;;;;;;30.22;59.01;94895.81;5071563;28;20552;-58
2022/08/13 09:25:01;;;;;;;18.33;2.53;;;;;;;30.56;51.73;94893.94;5071667;28;20457;-58
2022/08/13 09:27:30;;;;;;;0.50;0.50;;;;;;;31.00;54.20;94882.09;5071675;28;20838;-58
2022/08/13 09:30:20;;;;;;;0.87;0.87;;;;;;;31.26;47.07;94887.63;5071732;28;20444;-58
2022/08/13 09:32:54;;;;;;;0.77;0.73;;;;;;;31.79;47.24;94880.63;5071420;28;20437;-57
2022/08/13 09:35:25;;;;;;;0.70;0.57;;;;;;;32.54;53.63;94881.75;5071329;28;20431;-58
2022/08/13 09:38:04;;;;;;;1.60;0.97;;;;;;;31.78;45.42;94887.28;5071460;28;20461;-57
2022/08/13 09:40:37;;;;;;;1.17;1.10;;;;;;;31.33;46.77;94882.06;5071802;28;20424;-58
2022/08/13 09:43:20;;;;;;;0.93;0.93;;;;;;;30.92;49.47;94881.41;5071516;28;20474;-58
2022/08/13 09:46:09;;;;;;;0.67;0.67;;;;;;;32.03;46.62;94875.97;5071324;28;20432;-57
2022/08/13 09:48:45;;;;;;;1.50;0.50;;;;;;;32.31;50.00;94873.50;5071322;28;20425;-57
2022/08/13 09:51:15;;;;;;;0.90;0.90;;;;;;;32.62;46.99;94861.22;5071300;28;20448;-56
2022/08/13 09:54:05;;;;;;;0.50;0.50;;;;;;;32.88;46.31;94850.50;5071214;28;20441;-56
2022/08/13 09:56:37;;;;;;;1.00;0.40;;;;;;;33.44;41.29;94857.56;5071358;28;20509;-56
2022/08/13 09:59:06;;;;;;;0.40;0.30;;;;;;;33.44;40.33;94857.56;5071470;28;20492;-56
2022/08/13 10:01:42;;;;;;;2.20;0.73;;;;;;;32.96;44.44;94857.41;5071222;28;20434;-56
2022/08/13 10:04:26;;;;;;;0.50;0.50;;;;;;;32.84;41.96;94847.06;5071515;28;20995;-56
2022/08/13 10:06:58;;;;;;;0.70;0.70;;;;;;;33.06;43.63;94842.72;5071307;28;20480;-55
2022/08/13 10:09:34;;;;;;;2.37;1.57;;;;;;;33.20;42.78;94850.63;5071564;28;20506;-55
2022/08/13 10:12:22;;;;;;;1.03;1.03;;;;;;;32.72;45.73;94836.69;5071141;28;20447;-55
2022/08/13 10:14:50;;;;;;;1.87;1.57;;;;;;;32.29;43.70;94844.94;5071457;28;20441;-56
2022/08/13 10:17:25;;;;;;;0.60;0.50;;;;;;;32.10;42.12;94838.25;5070897;28;20458;-56
2022/08/13 10:20:18;;;;;;;7.93;3.70;;;;;;;31.17;45.66;94837.31;5075032;28;20475;-56
2022/08/13 10:22:48;;;;;;;0.53;0.53;;;;;;;30.84;47.16;94844.34;5074993;28;20434;-56
2022/08/13 10:25:22;;;;;;;0.70;0.70;;;;;;;30.57;50.47;94846.25;5074268;28;20468;-57
2022/08/13 10:27:50;;;;;;;0.60;0.50;;;;;;;30.08;54.06;94845.53;5074658;28;20506;-57
2022/08/13 10:30:24;;;;;;;0.80;0.50;;;;;;;30.35;52.98;94845.72;5074293;28;20916;-57
2022/08/13 10:33:12;;;;;;;0.50;0.40;;;;;;;30.24;54.57;94844.22;5074443;28;20440;-57
2022/08/13 10:35:45;;;;;;;0.40;0.30;;;;;;;30.40;53.61;94828.06;5074852;28;20427;-58
2022/08/13 10:38:26;;;;;;;0.47;0.47;;;;;;;30.28;55.65;94834.03;5074412;28;20430;-58
2022/08/13 10:40:58;;;;;;;0.73;0.73;;;;;;;30.17;55.54;94834.16;5074283;28;20991;-58
2022/08/13 10:43:32;;;;;;;0.40;0.30;;;;;;;30.26;54.49;94826.22;5074084;28;20501;-57
2022/08/13 10:46:20;;;;;;;7.83;0.87;;;;;;;29.81;55.62;94833.69;5073355;28;20454;-56
2022/08/13 10:48:56;;;;;;;1.03;0.63;;;;;;;29.43;59.00;94823.81;5074511;28;20967;-55
2022/08/13 10:51:28;;;;;;;0.43;0.43;;;;;;;29.79;55.41;94818.88;5074294;28;20430;-55
2022/08/13 10:53:59;;;;;;;0.67;0.50;;;;;;;29.76;54.17;94825.91;5073319;28;20458;-55
2022/08/13 10:56:30;;;;;;;0.40;0.30;;;;;;;29.96;54.72;94826.94;5074154;28;20829;-55
2022/08/13 10:59:01;;;;;;;0.70;0.70;;;;;;;29.90;59.46;94830.50;5073835;28;20921;-55
2022/08/13 11:01:31;;;;;;;0.50;0.50;;;;;;;29.92;57.58;94823.47;5074073;28;20508;-56
2022/08/13 11:04:02;;;;;;;0.83;0.50;;;;;;;29.69;60.65;94825.97;5073496;28;20465;-55
2022/08/13 11:06:36;;;;;;;3.33;1.30;;;;;;;29.05;64.14;94835.72;5073537;28;20784;-56
2022/08/13 11:09:08;;;;;;;1.17;0.97;;;;;;;28.98;65.81;94833.84;5073615;28;20479;-57
2022/08/13 11:11:55;;;;;;;1.40;1.13;;;;;;;28.61;72.06;94839.88;5073359;28;20436;-57
2022/08/13 11:14:28;;;;;;;0.80;0.80;;;;;;;28.41;70.56;94836.00;5073270;28;20429;-57
2022/08/13 11:17:09;;;;;;;1.20;1.10;;;;;;;28.27;67.24;94841.47;5073213;28;21074;-58
2022/08/13 11:20:03;;;;;;;0.70;0.70;;;;;;;27.54;64.08;94808.47;5073671;28;20456;-60
2022/08/13 11:22:37;;;;;;;0.50;0.40;;;;;;;26.99;61.92;94837.91;5073187;28;20451;-58
2022/08/13 11:25:11;;;;;;;0.90;0.83;;;;;;;26.83;58.88;94847.59;5073089;28;20464;-58
2022/08/13 11:27:59;;;;;;;1.03;1.03;;;;;;;25.91;65.94;94830.00;5071635;28;20444;-58
2022/08/13 11:30:28;;;;;;;0.67;0.63;;;;;;;25.80;70.63;94840.78;5072716;28;20422;-58
2022/08/13 11:33:05;;;;;;;0.60;0.50;;;;;;;24.38;80.44;94713.94;5073315;28;20486;-57
2022/08/13 11:35:41;;;;;;;1.03;1.03;;;;;;;24.83;94.02;94842.97;5072558;28;20517;-57
2022/08/13 11:38:19;;;;;;;2.17;2.07;;;;;;;24.50;100.00;94862.69;5072685;28;20503;-57
2022/08/13 11:40:49;;;;;;;2.60;0.70;;;;;;;24.17;100.00;94859.91;5072940;28;20421;-57
2022/08/13 11:43:21;;;;;;;1.20;1.10;;;;;;;24.50;100.00;94851.06;5073005;28;20502;-57
2022/08/13 11:45:50;;;;;;;0.97;0.97;;;;;;;24.76;100.00;94842.88;5073029;28;20840;-57
2022/08/13 11:48:19;;;;;;;1.17;1.17;;;;;;;25.06;100.00;94862.59;5072984;28;20520;-57
2022/08/13 11:51:03;;;;;;;0.60;0.50;;;;;;;25.50;100.00;94857.19;5073043;28;20425;-57
2022/08/13 11:53:34;;;;;;;2.50;0.47;;;;;;;25.61;100.00;94854.59;5072666;28;20921;-59
2022/08/13 11:56:23;;;;;;;1.17;1.07;;;;;;;25.74;100.00;94853.13;5072592;28;20436;-58
2022/08/13 11:58:57;;;;;;;6.50;1.00;;;;;;;25.67;87.02;94831.38;5072877;28;20490;-58
2022/08/13 12:01:27;;;;;;;1.20;1.10;;;;;;;25.97;85.84;94864.56;5072780;28;20445;-59
2022/08/13 12:04:10;;;;;;;0.57;0.50;;;;;;;25.95;79.58;94798.22;5072321;28;20469;-59
2022/08/13 12:06:50;;;;;;;0.50;0.40;;;;;;;26.46;74.02;94861.41;5072703;28;20487;-58
2022/08/13 12:09:21;;;;;;;0.60;0.60;;;;;;;26.29;80.94;94864.78;5072438;28;20453;-58
2022/08/13 12:12:09;;;;;;;0.77;0.50;;;;;;;26.49;85.16;94860.63;5072454;28;20784;-58
2022/08/13 12:14:50;;;;;;;1.17;1.07;;;;;;;26.26;91.97;94865.56;5072157;28;20424;-58
2022/08/13 12:17:19;;;;;;;0.80;0.60;;;;;;;26.18;82.11;94863.94;5072222;28;20426;-58
2022/08/13 12:20:09;;;;;;;0.57;0.47;;;;;;;26.14;86.43;94868.56;5072108;28;20961;-57
2022/08/13 12:22:46;;;;;;;0.87;0.87;;;;;;;26.98;86.63;94866.28;5072209;28;20424;-57
2022/08/13 12:25:21;;;;;;;0.87;0.87;;;;;;;26.63;83.99;94797.38;5072209;28;20988;-57
2022/08/13 12:28:12;;;;;;;0.80;0.80;;;;;;;27.73;86.45;94863.72;5071995;28;20429;-55
2022/08/13 12:30:51;;;;;;;0.63;0.63;;;;;;;28.43;77.42;94858.19;5072064;28;20912;-55